Time;durP1;ratioP1;P1;durP2;ratioP2;P2;SDS_P1;SDS_P2;PMS_P1;PMS_P2;Temp;Humidity;BMP_temperature;BMP_pressure;BME280_temperature;BME280_humidity;BME280_pressure;Samples;Min_cycle;Max_cycle;Signal;HPM_P1;HPM_P2
2022/10/17 00:01:55;;;;;;;25.60;17.10;;;;;;;4.83;100.00;98735.98;107816;1265;59682;-81
2022/10/17 00:04:24;;;;;;;21.20;13.60;;;;;;;4.80;100.00;98736.09;107750;1265;70508;-80
2022/10/17 00:06:55;;;;;;;21.60;13.50;;;;;;;4.75;100.00;98733.98;107787;1264;68304;-80
2022/10/17 00:09:26;;;;;;;17.70;11.00;;;;;;;4.68;99.36;98730.92;107888;1265;68542;-80
2022/10/17 00:11:58;;;;;;;25.80;16.30;;;;;;;4.62;98.82;98728.65;107841;1263;60177;-79
2022/10/17 00:14:28;;;;;;;31.50;19.00;;;;;;;4.57;100.00;98732.76;107945;1266;59674;-79
2022/10/17 00:16:59;;;;;;;;;;;;;;;4.53;100.00;98735.64;107774;1266;71309;-78
2022/10/17 00:19:30;;;;;;;24.30;16.70;;;;;;;4.50;100.00;98739.16;107891;1262;68199;-78
2022/10/17 00:22:01;;;;;;;31.80;19.40;;;;;;;4.49;100.00;98742.99;107812;1267;68488;-79
2022/10/17 00:24:31;;;;;;;43.40;23.60;;;;;;;4.51;100.00;98740.00;107817;1267;59757;-78
2022/10/17 00:27:01;;;;;;;25.10;13.80;;;;;;;4.49;100.00;98740.05;107735;1266;59722;-79
2022/10/17 00:29:31;;;;;;;22.10;12.20;;;;;;;4.48;99.28;98739.74;107676;1267;70606;-79
2022/10/17 00:32:01;;;;;;;;;;;;;;;4.47;97.80;98738.71;107898;1262;69341;-79
2022/10/17 00:34:31;;;;;;;29.50;15.10;;;;;;;4.49;99.47;98738.50;107683;1263;69274;-79
2022/10/17 00:37:04;;;;;;;19.70;13.30;;;;;;;4.50;100.00;98736.77;107705;1269;59779;-77
2022/10/17 00:39:36;;;;;;;23.90;13.40;;;;;;;4.49;100.00;98735.75;107877;1266;59673;-78
2022/10/17 00:42:09;;;;;;;22.00;13.60;;;;;;;4.47;100.00;98731.46;107771;1266;71381;-79
2022/10/17 00:44:39;;;;;;;23.40;15.40;;;;;;;4.45;100.00;98733.10;108081;1266;69160;-79
2022/10/17 00:47:18;;;;;;;19.50;13.40;;;;;;;4.45;100.00;98738.46;107768;1266;69224;-79
2022/10/17 00:49:50;;;;;;;21.90;13.30;;;;;;;4.45;100.00;98740.35;108071;1262;59765;-79
2022/10/17 00:52:23;;;;;;;23.80;15.30;;;;;;;4.46;100.00;98734.78;107776;1264;59782;-79
2022/10/17 00:54:58;;;;;;;25.30;14.10;;;;;;;4.48;100.00;98733.53;107742;1267;71231;-78
2022/10/17 00:57:31;;;;;;;18.50;11.00;;;;;;;4.46;100.00;98736.87;107867;1267;67620;-79
2022/10/17 01:00:06;;;;;;;23.80;13.20;;;;;;;4.43;100.00;98737.80;107878;1265;69103;-79
2022/10/17 01:02:37;;;;;;;17.00;11.50;;;;;;;4.42;100.00;98740.43;107685;1265;59784;-80
2022/10/17 01:05:08;;;;;;;21.80;13.50;;;;;;;4.38;100.00;98742.77;107727;1265;60015;-80
2022/10/17 01:07:41;;;;;;;24.90;14.20;;;;;;;4.31;100.00;98743.47;107733;1266;70475;-80
2022/10/17 01:10:13;;;;;;;18.90;11.40;;;;;;;4.27;99.95;98738.58;107700;1257;68891;-76
2022/10/17 01:13:08;;;;;;;22.30;12.60;;;;;;;4.28;99.06;98735.80;107850;1262;68767;-79
2022/10/17 01:15:55;;;;;;;20.90;11.40;;;;;;;4.27;99.68;98737.38;108019;1265;59751;-80
2022/10/17 01:18:44;;;;;;;19.10;12.50;;;;;;;4.25;100.00;98740.70;107894;1261;59758;-80
2022/10/17 01:21:15;;;;;;;27.40;15.70;;;;;;;4.24;100.00;98739.35;107943;1266;71275;-79
2022/10/17 01:23:50;;;;;;;20.00;12.00;;;;;;;4.22;100.00;98738.19;108004;1263;68295;-79
2022/10/17 01:26:54;;;;;;;16.90;11.80;;;;;;;4.21;100.00;98739.08;107803;1262;68383;-79
2022/10/17 01:30:03;;;;;;;25.00;16.50;;;;;;;4.19;100.00;98743.95;107820;1265;59689;-79
2022/10/17 01:32:46;;;;;;;19.20;13.70;;;;;;;4.19;100.00;98750.18;107844;1266;59690;-78
2022/10/17 01:35:28;;;;;;;18.80;12.20;;;;;;;4.18;100.00;98754.85;107839;1266;70890;-79
2022/10/17 01:38:16;;;;;;;22.00;13.60;;;;;;;4.18;100.00;98760.05;107814;1268;67456;-79
2022/10/17 01:41:13;;;;;;;22.10;14.30;;;;;;;4.17;100.00;98760.95;107777;1266;69418;-79
2022/10/17 01:43:52;;;;;;;19.20;13.30;;;;;;;4.15;100.00;98762.00;107822;1262;60019;-79
2022/10/17 01:46:48;;;;;;;20.10;13.20;;;;;;;4.15;100.00;98763.05;107693;1266;59765;-79
2022/10/17 01:49:25;;;;;;;17.50;12.80;;;;;;;4.14;100.00;98762.91;107790;1266;70618;-78
2022/10/17 01:52:05;;;;;;;25.80;16.40;;;;;;;4.14;100.00;98766.20;107745;1269;68468;-79
2022/10/17 01:54:42;;;;;;;24.50;16.50;;;;;;;4.07;100.00;98765.29;107783;1268;69209;-78
2022/10/17 01:57:25;;;;;;;19.20;12.90;;;;;;;4.02;100.00;98769.05;107777;1266;59731;-80
2022/10/17 01:59:58;;;;;;;20.40;13.40;;;;;;;3.95;100.00;98773.73;107648;1263;59701;-79
2022/10/17 02:02:30;;;;;;;21.20;13.50;;;;;;;3.86;100.00;98772.90;107772;1266;70796;-79
2022/10/17 02:05:02;;;;;;;22.00;14.20;;;;;;;3.80;100.00;98773.91;107802;1258;69174;-79
2022/10/17 02:07:33;;;;;;;23.30;14.40;;;;;;;3.76;100.00;98772.81;107782;1268;68433;-79
2022/10/17 02:10:18;;;;;;;31.10;17.80;;;;;;;3.72;100.00;98777.05;107630;1266;59769;-79
2022/10/17 02:13:08;;;;;;;23.50;15.30;;;;;;;3.63;100.00;98774.83;107737;1265;59744;-78
2022/10/17 02:16:04;;;;;;;23.80;15.90;;;;;;;3.55;100.00;98777.95;107650;1266;71291;-79
2022/10/17 02:18:49;;;;;;;18.90;12.40;;;;;;;3.49;100.00;98782.39;107664;1264;69996;-80
2022/10/17 02:21:25;;;;;;;20.30;11.60;;;;;;;3.45;100.00;98786.26;107668;1262;68527;-80
2022/10/17 02:24:14;;;;;;;21.80;13.80;;;;;;;3.43;100.00;98791.31;107779;1266;59776;-80
2022/10/17 02:27:07;;;;;;;23.20;15.00;;;;;;;3.41;100.00;98786.88;107961;1266;59762;-79
2022/10/17 02:29:56;;;;;;;22.00;14.10;;;;;;;3.41;100.00;98793.09;107835;1269;71341;-80
2022/10/17 02:33:07;;;;;;;26.70;17.80;;;;;;;3.41;100.00;98798.58;107615;1266;69205;-79
2022/10/17 02:35:44;;;;;;;28.00;17.40;;;;;;;3.43;100.00;98800.45;107596;1268;69228;-82
2022/10/17 02:38:17;;;;;;;23.80;15.60;;;;;;;3.45;100.00;98800.23;107780;1269;59760;-81
2022/10/17 02:40:51;;;;;;;23.40;15.30;;;;;;;3.48;100.00;98801.39;107929;1267;59673;-80
2022/10/17 02:43:22;;;;;;;26.60;16.50;;;;;;;3.51;100.00;98800.80;107867;1267;71404;-80
2022/10/17 02:45:53;;;;;;;26.70;15.90;;;;;;;3.48;100.00;98802.40;107686;1267;69678;-81
2022/10/17 02:48:55;;;;;;;22.70;14.10;;;;;;;3.46;100.00;98803.13;107768;1266;68332;-80
2022/10/17 02:51:40;;;;;;;30.70;16.40;;;;;;;3.45;100.00;98804.38;107753;1269;59740;-80
2022/10/17 02:54:20;;;;;;;20.80;12.40;;;;;;;3.39;100.00;98808.46;107655;1263;59701;-81
2022/10/17 02:56:54;;;;;;;23.10;15.10;;;;;;;3.36;100.00;98805.42;107739;1265;71358;-82
2022/10/17 02:59:26;;;;;;;21.00;13.70;;;;;;;3.34;100.00;98804.61;107872;1266;68514;-81
2022/10/17 03:01:55;;;;;;;21.40;14.20;;;;;;;3.33;100.00;98803.95;108090;1266;70867;-80
2022/10/17 03:04:25;;;;;;;28.20;15.00;;;;;;;3.33;100.00;98810.66;107730;1267;59708;-80
2022/10/17 03:06:55;;;;;;;21.80;14.70;;;;;;;3.32;100.00;98807.04;107876;1264;59738;-80
2022/10/17 03:09:26;;;;;;;26.70;15.70;;;;;;;3.32;100.00;98809.13;107803;1266;71403;-80
2022/10/17 03:11:56;;;;;;;;;;;;;;;3.31;100.00;98809.66;107997;1262;69258;-81
2022/10/17 03:14:26;;;;;;;;;;;;;;;3.32;100.00;98812.92;107859;1267;68717;-81
2022/10/17 03:16:55;;;;;;;31.10;17.30;;;;;;;3.31;100.00;98813.11;107706;1269;59778;-80
2022/10/17 03:19:24;;;;;;;23.20;15.50;;;;;;;3.29;100.00;98814.88;107834;1267;59721;-81
2022/10/17 03:21:55;;;;;;;30.10;17.60;;;;;;;3.26;100.00;98815.80;107744;1267;71958;-80
2022/10/17 03:24:25;;;;;;;23.50;15.50;;;;;;;3.24;100.00;98812.75;107671;1269;68545;-80
2022/10/17 03:26:55;;;;;;;28.00;16.10;;;;;;;3.23;100.00;98819.50;107656;1269;70380;-80
2022/10/17 03:29:24;;;;;;;;;;;;;;;3.18;100.00;98820.28;107960;1259;59762;-80
2022/10/17 03:31:54;;;;;;;21.10;12.60;;;;;;;3.15;100.00;98822.25;107772;1266;59726;-81
2022/10/17 03:34:24;;;;;;;36.20;15.30;;;;;;;3.15;100.00;98822.08;107959;1266;71288;-81
2022/10/17 03:36:53;;;;;;;23.10;14.50;;;;;;;3.14;100.00;98824.85;107651;1267;69053;-80
2022/10/17 03:39:24;;;;;;;32.70;16.10;;;;;;;3.11;100.00;98825.42;107869;1268;69171;-80
2022/10/17 03:41:54;;;;;;;20.30;13.70;;;;;;;3.08;100.00;98828.24;107769;1266;59753;-80
2022/10/17 03:44:23;;;;;;;21.10;12.90;;;;;;;3.05;100.00;98827.44;107920;1267;60109;-81
2022/10/17 03:46:53;;;;;;;26.20;15.70;;;;;;;3.02;100.00;98828.19;107842;1262;71301;-81
2022/10/17 03:49:23;;;;;;;27.50;16.20;;;;;;;3.02;100.00;98832.14;107866;1266;68661;-80
2022/10/17 03:51:52;;;;;;;22.90;13.70;;;;;;;2.99;100.00;98831.66;107846;1266;69282;-81
2022/10/17 03:54:22;;;;;;;16.50;9.60;;;;;;;2.98;100.00;98831.36;107804;1268;59814;-80
2022/10/17 03:56:52;;;;;;;24.80;13.90;;;;;;;2.96;100.00;98831.23;107615;1266;59634;-79
2022/10/17 03:59:21;;;;;;;26.80;15.40;;;;;;;3.01;100.00;98835.61;107963;1265;71958;-79
2022/10/17 04:01:58;;;;;;;27.60;16.40;;;;;;;3.05;100.00;98834.67;108033;1266;69865;-79
2022/10/17 04:04:28;;;;;;;23.40;14.60;;;;;;;3.09;100.00;98833.90;107980;1261;69960;-79
2022/10/17 04:06:57;;;;;;;16.90;11.10;;;;;;;3.11;100.00;98839.39;107765;1266;59695;-79
2022/10/17 04:09:27;;;;;;;20.10;13.10;;;;;;;3.12;100.00;98842.46;107781;1267;59738;-79
2022/10/17 04:12:17;;;;;;;;;;;;;;;3.12;100.00;98841.77;107781;1266;72086;-79
2022/10/17 04:14:47;;;;;;;44.40;19.60;;;;;;;3.10;100.00;98841.98;107935;1259;69170;-81
2022/10/17 04:17:17;;;;;;;;;;;;;;;3.04;100.00;98842.27;107695;1261;69312;-80
2022/10/17 04:19:48;;;;;;;37.70;23.70;;;;;;;2.97;100.00;98845.34;107639;1266;59755;-80
2022/10/17 04:22:19;;;;;;;30.20;21.10;;;;;;;2.91;100.00;98844.77;107740;1267;59715;-79
2022/10/17 04:24:54;;;;;;;42.90;25.90;;;;;;;2.88;100.00;98845.69;107928;1265;71412;-81
2022/10/17 04:27:44;;;;;;;39.20;22.90;;;;;;;2.85;100.00;98850.36;107992;1266;68146;-80
2022/10/17 04:30:14;;;;;;;39.50;24.40;;;;;;;2.84;100.00;98849.73;107984;1266;69272;-81
2022/10/17 04:32:43;;;;;;;40.00;25.10;;;;;;;2.78;100.00;98856.37;107774;1267;59713;-80
2022/10/17 04:35:15;;;;;;;31.80;21.30;;;;;;;2.75;100.00;98860.21;107788;1264;59705;-80
2022/10/17 04:37:47;;;;;;;30.80;19.10;;;;;;;2.73;100.00;98861.11;107845;1265;70633;-81
2022/10/17 04:40:19;;;;;;;33.10;17.90;;;;;;;2.69;100.00;98860.49;107780;1267;69153;-81
2022/10/17 04:42:49;;;;;;;25.40;16.20;;;;;;;2.67;100.00;98860.71;107861;1262;70372;-81
2022/10/17 04:45:20;;;;;;;18.20;13.40;;;;;;;2.65;100.00;98862.64;107804;1265;59812;-82
2022/10/17 04:47:51;;;;;;;22.80;14.50;;;;;;;2.65;100.00;98865.92;107947;1267;59699;-82
2022/10/17 04:50:21;;;;;;;18.30;11.80;;;;;;;2.63;100.00;98863.87;107783;1267;72493;-82
2022/10/17 04:53:07;;;;;;;17.80;12.00;;;;;;;2.63;100.00;98864.73;107960;1266;69152;-82
2022/10/17 04:55:38;;;;;;;22.10;14.60;;;;;;;2.64;100.00;98868.16;107948;1266;68132;-82
2022/10/17 04:58:07;;;;;;;28.80;17.30;;;;;;;2.66;100.00;98870.71;107627;1269;59790;-83
2022/10/17 05:00:36;;;;;;;22.10;15.30;;;;;;;2.65;100.00;98870.89;107933;1266;59652;-83
2022/10/17 05:03:21;;;;;;;19.50;12.80;;;;;;;2.66;100.00;98876.90;107827;1266;71641;-80
2022/10/17 05:05:50;;;;;;;23.40;14.80;;;;;;;2.68;100.00;98878.06;108103;1266;68827;-81
2022/10/17 05:08:19;;;;;;;27.60;18.00;;;;;;;2.71;100.00;98882.50;108018;1255;69312;-83
2022/10/17 05:10:48;;;;;;;26.30;14.50;;;;;;;2.74;100.00;98882.61;107858;1259;59707;-84
2022/10/17 05:13:16;;;;;;;21.60;11.00;;;;;;;2.78;100.00;98887.02;107851;1266;59652;-83
2022/10/17 05:15:45;;;;;;;23.30;12.20;;;;;;;2.83;100.00;98888.33;107832;1263;70598;-83
2022/10/17 05:18:13;;;;;;;20.90;14.20;;;;;;;2.87;100.00;98890.64;107879;1262;68181;-82
2022/10/17 05:20:42;;;;;;;26.70;16.00;;;;;;;2.94;100.00;98890.86;107738;1263;68530;-79
2022/10/17 05:23:12;;;;;;;29.50;16.10;;;;;;;3.00;100.00;98895.39;107928;1267;59719;-81
2022/10/17 05:25:42;;;;;;;26.60;14.40;;;;;;;3.08;100.00;98896.10;107683;1266;59683;-81
2022/10/17 05:28:11;;;;;;;21.70;12.80;;;;;;;3.17;100.00;98896.29;107630;1266;71409;-80
2022/10/17 05:30:41;;;;;;;18.90;13.10;;;;;;;3.26;100.00;98896.10;107936;1263;69206;-81
2022/10/17 05:33:10;;;;;;;20.40;14.50;;;;;;;3.36;100.00;98898.84;107894;1269;69377;-79
2022/10/17 05:35:39;;;;;;;22.90;15.40;;;;;;;3.45;100.00;98902.25;107425;1268;803996;-79
2022/10/17 05:38:07;;;;;;;19.10;13.70;;;;;;;3.56;100.00;98904.11;108015;1265;59746;-78
2022/10/17 05:40:38;;;;;;;17.90;14.90;;;;;;;3.70;100.00;98906.06;107870;1267;71429;-79
2022/10/17 05:43:08;;;;;;;14.20;10.70;;;;;;;3.83;100.00;98905.77;107765;1263;68492;-79
2022/10/17 05:45:37;;;;;;;19.30;12.10;;;;;;;3.99;100.00;98910.92;107975;1269;69504;-80
2022/10/17 05:48:07;;;;;;;16.30;11.50;;;;;;;4.13;100.00;98915.45;107955;1266;59940;-80
2022/10/17 05:50:36;;;;;;;16.20;12.50;;;;;;;4.28;100.00;98915.80;107884;1266;59818;-78
2022/10/17 05:53:10;;;;;;;16.10;11.60;;;;;;;4.41;100.00;98922.91;107904;1266;70904;-78
2022/10/17 05:55:45;;;;;;;20.60;15.30;;;;;;;4.57;100.00;98924.77;107998;1262;69012;-78
2022/10/17 05:58:14;;;;;;;18.90;15.40;;;;;;;4.72;100.00;98926.64;107874;1265;70082;-78
2022/10/17 06:01:02;;;;;;;21.30;16.10;;;;;;;4.90;100.00;98932.05;107792;1266;59683;-78
2022/10/17 06:03:32;;;;;;;20.50;14.30;;;;;;;5.07;99.97;98939.39;107757;1266;59679;-78
2022/10/17 06:06:07;;;;;;;22.00;14.70;;;;;;;5.28;99.50;98938.48;107856;1267;72029;-79
2022/10/17 06:08:37;;;;;;;23.50;16.50;;;;;;;5.56;99.41;98936.30;107836;1263;69930;-78
2022/10/17 06:11:07;;;;;;;26.60;18.30;;;;;;;5.94;100.00;98942.84;107855;1262;69207;-78
2022/10/17 06:13:38;;;;;;;25.80;20.00;;;;;;;6.35;100.00;98946.63;107855;1265;59717;-77
2022/10/17 06:16:14;;;;;;;28.30;18.20;;;;;;;6.72;99.47;98952.90;107797;1266;60144;-77
2022/10/17 06:18:42;;;;;;;21.90;14.60;;;;;;;7.08;96.69;98959.32;107861;1266;71758;-80
2022/10/17 06:21:16;;;;;;;23.40;18.60;;;;;;;7.49;94.29;98957.37;107816;1267;69878;-79
2022/10/17 06:23:47;;;;;;;25.00;18.50;;;;;;;7.90;94.52;98957.27;107988;1266;69303;-79
2022/10/17 06:26:46;;;;;;;25.90;19.60;;;;;;;8.28;86.99;98961.90;107547;1261;59763;-80
2022/10/17 06:29:16;;;;;;;30.60;23.70;;;;;;;8.64;86.12;98961.39;108012;1267;59693;-79
2022/10/17 06:31:51;;;;;;;29.90;20.60;;;;;;;8.89;81.66;98964.48;107689;1263;71555;-75
2022/10/17 06:34:21;;;;;;;26.80;20.80;;;;;;;9.17;80.22;98964.04;107925;1266;69198;-76
2022/10/17 06:36:50;;;;;;;28.40;22.30;;;;;;;9.28;80.10;98968.95;107758;1262;69549;-79
2022/10/17 06:39:19;;;;;;;28.00;21.60;;;;;;;9.55;78.94;98970.56;107810;1256;59773;-77
2022/10/17 06:42:01;;;;;;;28.00;21.50;;;;;;;9.89;78.94;98975.83;107714;1267;59758;-78
2022/10/17 06:44:53;;;;;;;23.30;18.40;;;;;;;10.38;78.35;98978.67;107913;1266;71995;-78
2022/10/17 06:47:34;;;;;;;25.10;18.90;;;;;;;10.60;76.16;98979.02;107871;1262;68810;-78
2022/10/17 06:50:11;;;;;;;21.40;17.00;;;;;;;10.90;74.45;98979.46;107818;1262;69640;-78
2022/10/17 06:52:58;;;;;;;17.40;14.40;;;;;;;11.47;71.94;98980.44;107898;1266;59648;-78
2022/10/17 06:55:44;;;;;;;16.70;14.80;;;;;;;11.76;69.98;98981.02;107792;1266;59652;-78
2022/10/17 06:58:19;;;;;;;18.30;16.50;;;;;;;12.32;70.30;98983.11;107773;1269;70711;-78
2022/10/17 07:00:58;;;;;;;17.80;14.90;;;;;;;12.50;68.15;98984.73;107859;1266;69404;-78
2022/10/17 07:03:29;;;;;;;20.40;14.20;;;;;;;12.60;67.70;98988.73;107867;1260;69981;-78
2022/10/17 07:05:58;;;;;;;15.40;13.10;;;;;;;12.72;67.31;98984.55;107761;1267;59688;-77
2022/10/17 07:08:27;;;;;;;15.50;13.90;;;;;;;12.93;67.83;98985.45;107909;1267;59722;-78
2022/10/17 07:10:57;;;;;;;12.30;11.00;;;;;;;13.00;67.48;98987.19;107776;1266;71252;-77
2022/10/17 07:13:27;;;;;;;12.40;10.90;;;;;;;13.31;66.44;98989.37;107757;1266;69316;-77
2022/10/17 07:16:00;;;;;;;11.90;10.70;;;;;;;13.48;65.06;98988.36;107739;1269;67536;-78
2022/10/17 07:18:30;;;;;;;13.00;9.80;;;;;;;13.89;64.49;98986.81;107724;1259;59725;-77
2022/10/17 07:20:59;;;;;;;17.30;14.20;;;;;;;13.96;63.49;98988.10;108028;1265;59757;-77
2022/10/17 07:23:28;;;;;;;23.20;19.40;;;;;;;14.41;62.74;98982.48;107993;1261;71826;-77
2022/10/17 07:26:01;;;;;;;27.40;24.70;;;;;;;14.47;62.35;98987.04;107803;1263;69149;-77
2022/10/17 07:28:30;;;;;;;64.70;56.40;;;;;;;14.70;62.38;98988.19;107830;1267;68507;-75
2022/10/17 07:31:08;;;;;;;46.20;36.50;;;;;;;14.89;61.10;98985.34;107696;1267;59750;-77
2022/10/17 07:33:37;;;;;;;25.00;20.90;;;;;;;15.20;59.92;98986.83;107745;1266;59714;-75
2022/10/17 07:36:07;;;;;;;12.10;10.70;;;;;;;15.07;59.50;98990.69;107682;1266;71472;-77
2022/10/17 07:38:36;;;;;;;177.70;144.90;;;;;;;15.62;58.96;98990.30;107857;1269;67923;-75
2022/10/17 07:41:07;;;;;;;85.50;70.60;;;;;;;15.72;59.19;98989.65;107684;1263;68506;-77
2022/10/17 07:43:36;;;;;;;15.30;12.60;;;;;;;15.68;58.53;98987.47;107669;1268;59770;-78
2022/10/17 07:46:07;;;;;;;13.90;11.70;;;;;;;16.10;56.79;98983.34;107795;1264;59694;-77
2022/10/17 07:48:38;;;;;;;11.10;9.90;;;;;;;16.32;56.20;98977.50;107691;1269;71371;-78
2022/10/17 07:51:08;;;;;;;70.30;63.50;;;;;;;16.36;55.73;98983.53;107792;1268;69803;-76
2022/10/17 07:53:38;;;;;;;23.40;19.50;;;;;;;16.63;55.12;98985.02;107704;1263;69285;-76
2022/10/17 07:56:12;;;;;;;13.00;10.70;;;;;;;17.02;54.66;98990.10;107635;1267;59655;-76
2022/10/17 07:58:40;;;;;;;34.80;27.80;;;;;;;17.44;53.68;98991.69;107909;1267;59704;-76
2022/10/17 08:01:13;;;;;;;14.10;9.90;;;;;;;17.48;53.53;98987.30;107662;1266;72134;-76
2022/10/17 08:03:45;;;;;;;16.00;13.20;;;;;;;17.89;52.22;98989.30;107981;1267;69285;-76
2022/10/17 08:06:14;;;;;;;15.90;12.00;;;;;;;18.21;51.13;98988.51;107883;1266;68564;-77
2022/10/17 08:08:43;;;;;;;28.00;21.40;;;;;;;18.43;50.28;98989.26;107692;1259;60109;-75
2022/10/17 08:11:14;;;;;;;87.00;63.10;;;;;;;18.65;49.55;98992.41;107828;1266;59700;-75
2022/10/17 08:13:42;;;;;;;34.80;27.10;;;;;;;18.45;49.83;98987.48;107776;1267;71419;-76
2022/10/17 08:16:12;;;;;;;34.70;29.60;;;;;;;18.85;49.00;98989.59;107892;1263;69275;-76
2022/10/17 08:18:42;;;;;;;12.30;10.50;;;;;;;18.49;49.07;98986.31;107732;1259;69923;-76
2022/10/17 08:21:12;;;;;;;11.90;10.70;;;;;;;18.55;48.82;98986.70;107647;1267;59682;-75
2022/10/17 08:23:41;;;;;;;12.00;8.90;;;;;;;19.51;47.70;98989.36;107779;1266;59758;-76
2022/10/17 08:26:12;;;;;;;9.70;7.10;;;;;;;19.93;45.40;98980.87;107742;1268;71466;-77
2022/10/17 08:28:41;;;;;;;9.80;8.40;;;;;;;20.38;46.06;98978.66;108712;1266;69892;-75
2022/10/17 08:31:13;;;;;;;9.80;7.50;;;;;;;20.82;43.43;98975.02;108569;1266;68788;-76
2022/10/17 08:33:42;;;;;;;15.20;13.30;;;;;;;20.41;42.92;98976.67;108331;1267;59649;-76
2022/10/17 08:36:13;;;;;;;28.50;24.30;;;;;;;20.67;42.34;98974.87;107735;1267;59706;-76
2022/10/17 08:38:43;;;;;;;8.10;7.30;;;;;;;20.43;42.66;98973.42;107950;1267;72017;-76
2022/10/17 08:41:54;;;;;;;8.60;7.60;;;;;;;20.66;42.93;98972.18;107837;1264;69489;-76
2022/10/17 08:44:34;;;;;;;7.90;7.10;;;;;;;20.77;42.38;98974.55;107963;1266;69015;-75
2022/10/17 08:47:18;;;;;;;7.20;6.00;;;;;;;20.18;43.03;98977.10;108009;1259;59796;-76
2022/10/17 08:49:54;;;;;;;7.10;6.30;;;;;;;21.58;41.25;98974.77;107760;1266;59763;-76
2022/10/17 08:52:31;;;;;;;8.60;7.70;;;;;;;21.99;40.11;98972.48;107866;1268;72111;-76
2022/10/17 08:55:00;;;;;;;9.40;7.10;;;;;;;22.06;39.67;98972.31;107862;1266;69058;-76
2022/10/17 08:57:29;;;;;;;11.70;10.20;;;;;;;21.80;39.73;98972.92;107892;1267;69862;-76
2022/10/17 08:59:58;;;;;;;8.90;8.00;;;;;;;21.70;39.69;98975.88;108078;1267;59716;-75
2022/10/17 09:02:37;;;;;;;;;;;;;;;21.40;39.83;98978.66;108132;1259;59745;-75
2022/10/17 09:05:27;;;;;;;7.40;6.50;;;;;;;21.79;40.54;98977.59;107974;1261;72592;-74
2022/10/17 09:08:02;;;;;;;6.00;5.30;;;;;;;22.72;38.82;98978.39;108127;1266;69543;-74
2022/10/17 09:11:00;;;;;;;8.10;7.00;;;;;;;22.53;37.41;98980.75;108144;1266;69219;-74
2022/10/17 09:13:37;;;;;;;11.90;10.60;;;;;;;22.69;37.91;98975.70;107789;1271;59678;-75
2022/10/17 09:16:29;;;;;;;9.40;7.00;;;;;;;23.20;36.90;98976.69;107940;1266;59652;-75
2022/10/17 09:19:09;;;;;;;9.60;7.10;;;;;;;22.65;37.38;98977.46;107777;1267;71388;-75
2022/10/17 09:21:46;;;;;;;8.10;7.20;;;;;;;23.88;36.99;98982.19;108099;1263;67487;-74
2022/10/17 09:24:38;;;;;;;9.30;6.90;;;;;;;24.15;35.21;98974.02;107920;1262;69940;-75
2022/10/17 09:27:29;;;;;;;7.30;6.60;;;;;;;23.86;35.31;98980.68;107794;1267;59699;-74
2022/10/17 09:30:28;;;;;;;7.70;6.40;;;;;;;23.83;35.77;98978.81;108318;1266;59707;-74
2022/10/17 09:33:16;;;;;;;7.40;6.20;;;;;;;23.73;35.92;98982.13;107919;1267;70628;-75
2022/10/17 09:36:08;;;;;;;7.00;6.10;;;;;;;24.25;35.70;98977.81;107789;1267;69854;-74
2022/10/17 09:38:41;;;;;;;8.80;5.80;;;;;;;24.92;34.83;98979.84;107926;1266;68505;-74
2022/10/17 09:41:41;;;;;;;8.10;6.50;;;;;;;25.46;33.84;98979.77;107920;1267;59693;-74
2022/10/17 09:44:16;;;;;;;7.90;6.10;;;;;;;25.56;33.46;98978.91;107884;1267;59715;-73
2022/10/17 09:47:14;;;;;;;6.60;5.90;;;;;;;25.81;32.66;98977.05;107751;1266;72126;-73
2022/10/17 09:49:45;;;;;;;7.00;5.40;;;;;;;26.16;32.74;98978.52;107836;1267;69548;-74
2022/10/17 09:52:39;;;;;;;6.70;5.90;;;;;;;26.54;32.10;98977.08;108022;1266;70010;-73
2022/10/17 09:55:34;;;;;;;7.50;6.60;;;;;;;25.97;32.18;98978.14;107834;1269;59792;-75
2022/10/17 09:58:05;;;;;;;7.50;6.50;;;;;;;25.99;32.19;98971.80;107878;1266;59696;-74
2022/10/17 10:00:45;;;;;;;8.50;7.10;;;;;;;25.43;33.10;98973.54;108089;1266;72082;-73
2022/10/17 10:03:20;;;;;;;7.80;6.60;;;;;;;24.52;34.80;98972.52;108182;1266;68453;-74
2022/10/17 10:06:04;;;;;;;7.90;6.80;;;;;;;25.10;33.65;98972.37;108348;1264;68584;-73
2022/10/17 10:08:36;;;;;;;6.90;6.20;;;;;;;25.82;33.00;98966.78;108137;1268;59713;-74
2022/10/17 10:11:08;;;;;;;7.70;6.90;;;;;;;26.80;31.99;98964.08;107985;1266;59761;-73
2022/10/17 10:13:42;;;;;;;9.60;8.50;;;;;;;26.44;31.61;98962.05;107903;1267;70917;-74
2022/10/17 10:16:16;;;;;;;11.20;8.70;;;;;;;26.58;31.97;98960.73;107845;1262;69185;-75
2022/10/17 10:18:45;;;;;;;10.50;9.40;;;;;;;25.90;32.72;98957.27;107960;1267;68366;-74
2022/10/17 10:21:26;;;;;;;9.00;7.30;;;;;;;25.71;33.44;98959.95;108108;1268;59693;-74
2022/10/17 10:24:13;;;;;;;13.10;10.50;;;;;;;26.18;33.19;98955.01;107881;1267;59762;-74
2022/10/17 10:26:46;;;;;;;12.30;9.10;;;;;;;26.51;32.51;98954.34;107728;1266;72096;-75
2022/10/17 10:29:32;;;;;;;11.40;9.30;;;;;;;26.81;32.33;98951.21;107799;1263;69322;-74
2022/10/17 10:32:22;;;;;;;12.20;11.00;;;;;;;27.31;31.62;98945.27;107992;1267;69778;-75
2022/10/17 10:34:54;;;;;;;10.40;9.30;;;;;;;27.36;31.01;98942.46;107873;1262;59750;-74
2022/10/17 10:37:27;;;;;;;13.20;11.40;;;;;;;27.29;31.50;98945.98;108007;1266;59796;-75
2022/10/17 10:39:59;;;;;;;12.90;11.20;;;;;;;26.67;31.96;98942.79;107887;1266;71523;-75
2022/10/17 10:42:38;;;;;;;9.90;8.70;;;;;;;25.90;33.36;98939.61;107846;1263;69880;-74
2022/10/17 10:45:17;;;;;;;10.70;9.60;;;;;;;26.09;33.52;98936.46;107904;1267;68496;-74
2022/10/17 10:48:18;;;;;;;13.40;11.80;;;;;;;26.69;32.42;98940.48;107880;1263;59703;-75
2022/10/17 10:50:56;;;;;;;13.70;12.20;;;;;;;27.10;31.49;98941.92;108038;1263;59698;-75
2022/10/17 10:53:25;;;;;;;14.70;10.30;;;;;;;26.70;32.00;98939.08;107941;1263;70465;-74
2022/10/17 10:55:58;;;;;;;12.00;9.70;;;;;;;26.50;32.07;98938.37;108089;1267;69186;-75
2022/10/17 10:58:46;;;;;;;9.10;8.10;;;;;;;25.99;33.01;98935.19;107969;1267;69202;-75
2022/10/17 11:01:29;;;;;;;11.90;8.90;;;;;;;26.47;32.60;98932.11;108123;1269;59717;-75
2022/10/17 11:04:22;;;;;;;9.30;7.70;;;;;;;27.40;31.72;98934.09;107792;1258;59656;-75
2022/10/17 11:06:58;;;;;;;11.10;9.10;;;;;;;27.94;30.41;98928.73;107970;1267;72062;-74
2022/10/17 11:09:32;;;;;;;11.40;8.90;;;;;;;28.24;29.79;98927.89;107935;1267;68562;-75
2022/10/17 11:12:05;;;;;;;14.70;11.10;;;;;;;28.29;29.41;98926.42;108024;1268;68436;-76
2022/10/17 11:14:49;;;;;;;11.80;10.50;;;;;;;27.72;29.98;98929.00;108161;1266;59706;-75
2022/10/17 11:17:33;;;;;;;8.90;7.80;;;;;;;27.62;29.82;98928.63;107920;1268;59663;-75
2022/10/17 11:20:08;;;;;;;9.00;7.10;;;;;;;28.06;29.67;98918.48;107809;1267;71434;-74
2022/10/17 11:23:02;;;;;;;9.30;8.40;;;;;;;28.18;29.64;98915.09;107840;1262;69183;-74
2022/10/17 11:25:30;;;;;;;9.10;7.80;;;;;;;28.18;28.72;98912.19;107968;1267;69899;-76
2022/10/17 11:27:59;;;;;;;8.70;7.70;;;;;;;28.61;29.24;98913.55;107983;1267;59709;-73
2022/10/17 11:30:45;;;;;;;9.30;7.00;;;;;;;28.31;28.11;98910.60;108378;1266;59691;-75
2022/10/17 11:33:39;;;;;;;6.60;5.70;;;;;;;28.21;29.37;98907.74;109208;1267;70607;-74
2022/10/17 11:36:09;;;;;;;6.60;5.20;;;;;;;28.85;28.71;98908.30;108015;1261;69675;-75
2022/10/17 11:39:07;;;;;;;7.00;5.60;;;;;;;29.36;28.20;98913.95;108036;1266;69199;-76
2022/10/17 11:41:39;;;;;;;5.90;5.20;;;;;;;28.54;27.78;98908.84;107716;1267;59765;-75
2022/10/17 11:44:41;;;;;;;6.20;4.80;;;;;;;29.00;27.52;98903.65;107980;1266;59679;-75
2022/10/17 11:47:48;;;;;;;7.30;5.50;;;;;;;29.13;27.83;98904.66;107864;1267;70716;-75
2022/10/17 11:50:25;;;;;;;6.20;4.80;;;;;;;29.24;28.28;98903.91;107648;1267;69777;-74
2022/10/17 11:53:15;;;;;;;6.30;5.70;;;;;;;29.50;27.28;98905.10;108304;1263;69316;-75
2022/10/17 11:55:46;;;;;;;6.20;4.90;;;;;;;29.26;27.71;98905.91;108024;1267;59826;-75
2022/10/17 11:58:23;;;;;;;5.80;5.20;;;;;;;29.43;27.51;98903.42;108022;1266;59756;-76